createdAt,value
2019-02-12T00:00:14.567Z,-1.50
2019-02-12T00:02:43.149Z,-1.50
2019-02-12T00:05:12.635Z,-1.50
2019-02-12T00:07:41.383Z,-1.50
2019-02-12T00:10:10.094Z,-1.50
2019-02-12T00:12:38.866Z,-1.50
2019-02-12T00:15:07.883Z,-1.60
2019-02-12T00:17:36.447Z,-1.60
2019-02-12T00:20:06.462Z,-1.60
2019-02-12T00:22:35.133Z,-1.50
2019-02-12T00:25:04.670Z,-1.50
2019-02-12T00:27:33.249Z,-1.50
2019-02-12T00:30:01.826Z,-1.60
2019-02-12T00:32:30.398Z,-1.60
2019-02-12T00:34:59.030Z,-1.60
2019-02-12T00:37:27.617Z,-1.50
2019-02-12T00:39:56.178Z,-1.50
2019-02-12T00:42:24.757Z,-1.50
2019-02-12T00:44:53.326Z,-1.50
2019-02-12T00:47:21.902Z,-1.50
2019-02-12T00:49:50.481Z,-1.50
2019-02-12T00:52:19.057Z,-1.60
2019-02-12T00:54:47.627Z,-1.50
2019-02-12T00:57:18.177Z,-1.50
2019-02-12T00:59:46.446Z,-1.50
2019-02-12T01:02:15.011Z,-1.50
2019-02-12T01:04:43.594Z,-1.50
2019-02-12T01:07:12.234Z,-1.40
2019-02-12T01:09:40.814Z,-1.40
2019-02-12T01:12:09.384Z,-1.40
2019-02-12T01:14:37.957Z,-1.40
2019-02-12T01:17:06.535Z,-1.30
2019-02-12T01:19:35.189Z,-1.40
2019-02-12T01:22:03.894Z,-1.40
2019-02-12T01:24:32.464Z,-1.40
2019-02-12T01:27:01.037Z,-1.40
2019-02-12T01:29:29.607Z,-1.40
2019-02-12T01:31:58.190Z,-1.40
2019-02-12T01:34:26.758Z,-1.50
2019-02-12T01:36:55.339Z,-1.50
2019-02-12T01:39:23.906Z,-1.50
2019-02-12T01:41:52.490Z,-1.50
2019-02-12T01:44:21.057Z,-1.50
2019-02-12T01:46:49.646Z,-1.40
2019-02-12T01:49:18.218Z,-1.40
2019-02-12T01:51:47.286Z,-1.40
2019-02-12T01:54:15.866Z,-1.40
2019-02-12T01:56:44.434Z,-1.40
2019-02-12T01:59:13.025Z,-1.40
2019-02-12T02:01:41.597Z,-1.30
2019-02-12T02:04:10.242Z,-1.30
2019-02-12T02:06:38.817Z,-1.20
2019-02-12T02:09:07.601Z,-1.30
2019-02-12T02:11:36.241Z,-1.30
2019-02-12T02:14:04.978Z,-1.20
2019-02-12T02:16:33.618Z,-1.30
2019-02-12T02:19:02.186Z,-1.20
2019-02-12T02:21:30.838Z,-1.20
2019-02-12T02:23:59.474Z,-1.20
2019-02-12T02:26:28.050Z,-1.20
2019-02-12T02:28:56.629Z,-1.20
2019-02-12T02:31:25.217Z,-1.20
2019-02-12T02:33:53.785Z,-1.20
2019-02-12T02:36:22.395Z,-1.30
2019-02-12T02:38:50.963Z,-1.30
2019-02-12T02:41:19.681Z,-1.40
2019-02-12T02:43:49.236Z,-1.40
2019-02-12T02:46:17.802Z,-1.40
2019-02-12T02:48:46.370Z,-1.50
2019-02-12T02:51:14.994Z,-1.60
2019-02-12T02:53:43.577Z,-1.50
2019-02-12T02:56:12.166Z,-1.50
2019-02-12T02:58:40.819Z,-1.60
2019-02-12T03:01:09.393Z,-1.50
2019-02-12T03:03:37.965Z,-1.60
2019-02-12T03:06:06.548Z,-1.60
2019-02-12T03:08:35.117Z,-1.60
2019-02-12T03:11:03.695Z,-1.70
2019-02-12T03:13:32.330Z,-1.70
2019-02-12T03:16:00.921Z,-1.70
2019-02-12T03:18:29.502Z,-1.80
2019-02-12T03:20:58.082Z,-1.70
2019-02-12T03:23:26.664Z,-1.70
2019-02-12T03:25:55.230Z,-1.70
2019-02-12T03:28:23.811Z,-1.70
2019-02-12T03:30:52.384Z,-1.70
2019-02-12T03:33:20.978Z,-1.80
2019-02-12T03:35:49.546Z,-1.80
2019-02-12T03:38:18.124Z,-1.80
2019-02-12T03:40:46.696Z,-1.90
2019-02-12T03:43:15.333Z,-1.90
2019-02-12T03:45:43.906Z,-1.90
2019-02-12T03:48:12.479Z,-1.90
2019-02-12T03:50:41.059Z,-2.00
2019-02-12T03:53:09.626Z,-2.10
2019-02-12T03:55:38.218Z,-2.10
2019-02-12T03:58:06.849Z,-2.20
2019-02-12T04:00:35.670Z,-2.30
2019-02-12T04:03:06.027Z,-2.30
2019-02-12T04:05:35.945Z,-2.20
2019-02-12T04:08:05.040Z,-2.30
2019-02-12T04:10:33.602Z,-2.30
2019-02-12T04:13:02.295Z,-2.30
2019-02-12T04:15:31.025Z,-2.40
2019-02-12T04:17:59.746Z,-2.40
2019-02-12T04:20:28.317Z,-2.30
2019-02-12T04:22:56.966Z,-2.40
2019-02-12T04:25:25.527Z,-2.40
2019-02-12T04:27:55.549Z,-2.40
2019-02-12T04:30:24.458Z,-2.50
2019-02-12T04:32:53.030Z,-2.60
2019-02-12T04:35:21.612Z,-2.60
2019-02-12T04:37:50.183Z,-2.60
2019-02-12T04:40:18.762Z,-2.60
2019-02-12T04:42:47.329Z,-2.60
2019-02-12T04:45:15.910Z,-2.60
2019-02-12T04:47:44.477Z,-2.60
2019-02-12T04:50:14.727Z,-2.60
2019-02-12T04:52:43.473Z,-2.60
2019-02-12T04:55:12.779Z,-2.60
2019-02-12T04:57:41.497Z,-2.60
2019-02-12T05:00:13.070Z,-2.60
2019-02-12T05:02:41.744Z,-2.70
2019-02-12T05:05:10.947Z,-2.70
2019-02-12T05:07:39.711Z,-2.70
2019-02-12T05:10:27.531Z,-2.70
2019-02-12T05:12:56.110Z,-2.70
2019-02-12T05:15:24.920Z,-2.70
2019-02-12T05:17:54.067Z,-2.80
2019-02-12T05:20:22.982Z,-2.80
2019-02-12T05:22:51.696Z,-2.90
2019-02-12T05:25:20.422Z,-2.80
2019-02-12T05:27:49.054Z,-2.90
2019-02-12T05:30:17.703Z,-3.00
2019-02-12T05:32:46.274Z,-3.00
2019-02-12T05:35:14.878Z,-3.00
2019-02-12T05:37:43.483Z,-3.00
2019-02-12T05:40:12.366Z,-3.00
2019-02-12T05:42:40.942Z,-3.10
2019-02-12T05:45:13.462Z,-3.10
2019-02-12T05:47:42.179Z,-3.10
2019-02-12T05:50:15.105Z,-3.10
2019-02-12T05:52:53.365Z,-3.10
2019-02-12T05:55:14.030Z,-3.10
2019-02-12T05:57:43.764Z,-3.10
2019-02-12T06:00:18.883Z,-3.10
2019-02-12T06:02:47.722Z,-3.10
2019-02-12T06:05:25.076Z,-3.10
2019-02-12T06:07:53.898Z,-3.00
2019-02-12T06:10:23.206Z,-3.10
2019-02-12T06:12:52.038Z,-3.10
2019-02-12T06:15:20.733Z,-3.10
2019-02-12T06:17:50.162Z,-3.10
2019-02-12T06:20:18.691Z,-3.00
2019-02-12T06:22:47.254Z,-3.00
2019-02-12T06:25:15.840Z,-3.00
2019-02-12T06:27:44.407Z,-3.00
2019-02-12T06:30:13.230Z,-2.90
2019-02-12T06:32:41.856Z,-2.80
2019-02-12T06:35:10.553Z,-2.80
2019-02-12T06:37:39.202Z,-2.80
2019-02-12T06:40:10.319Z,-2.70
2019-02-12T06:42:39.030Z,-2.70
2019-02-12T06:45:14.942Z,-2.70
2019-02-12T06:47:43.557Z,-2.70
2019-02-12T06:50:14.802Z,-2.70
2019-02-12T06:52:43.385Z,-2.80
2019-02-12T06:55:12.297Z,-2.70
2019-02-12T06:57:40.878Z,-2.70
2019-02-12T07:00:15.926Z,-2.70
2019-02-12T07:03:16.642Z,-2.70
2019-02-12T07:06:09.205Z,-2.70
2019-02-12T07:08:46.570Z,-2.60
2019-02-12T07:11:30.303Z,-2.60
2019-02-12T07:14:31.732Z,-2.60
2019-02-12T07:17:30.303Z,-2.60
2019-02-12T07:20:07.773Z,-2.50
2019-02-12T07:22:57.501Z,-2.50
2019-02-12T07:25:41.091Z,-2.40
2019-02-12T07:28:15.315Z,-2.30
2019-02-12T07:31:14.086Z,-2.30
2019-02-12T07:34:02.718Z,-2.20
2019-02-12T07:37:03.319Z,-2.00
2019-02-12T07:39:37.558Z,-1.70
2019-02-12T07:42:17.940Z,-1.20
2019-02-12T07:45:23.034Z,-0.70
2019-02-12T07:48:15.374Z,0.10
2019-02-12T07:50:55.550Z,1.60
2019-02-12T07:53:31.441Z,3.30
2019-02-12T07:56:18.578Z,4.90
2019-02-12T07:58:55.948Z,5.90
2019-02-12T08:01:51.582Z,6.30
2019-02-12T08:04:39.622Z,6.40
2019-02-12T08:07:44.519Z,6.10
2019-02-12T08:10:18.966Z,5.70
2019-02-12T08:13:10.288Z,5.70
2019-02-12T08:15:47.966Z,5.90
2019-02-12T08:18:37.952Z,6.30
2019-02-12T08:21:09.610Z,6.80
2019-02-12T08:23:50.332Z,7.60
2019-02-12T08:26:30.842Z,8.30
2019-02-12T08:29:11.421Z,8.90
2019-02-12T08:32:15.014Z,9.30
2019-02-12T08:35:03.159Z,10.30
2019-02-12T08:37:46.862Z,11.30
2019-02-12T08:40:51.690Z,11.90
2019-02-12T08:43:29.218Z,12.50
2019-02-12T08:46:24.780Z,12.80
2019-02-12T08:49:02.350Z,13.30
2019-02-12T08:51:42.605Z,13.60
2019-02-12T08:54:32.346Z,13.50
2019-02-12T08:57:09.442Z,13.40
2019-02-12T08:59:47.178Z,13.80
2019-02-12T09:02:30.393Z,13.60
2019-02-12T09:05:08.058Z,14.10
2019-02-12T09:07:39.794Z,14.20
2019-02-12T09:10:29.340Z,13.80
2019-02-12T09:13:12.523Z,13.70
2019-02-12T09:16:06.892Z,13.80
2019-02-12T09:19:12.172Z,13.10
2019-02-12T09:22:05.005Z,12.70
2019-02-12T09:24:51.422Z,12.60
2019-02-12T09:27:25.933Z,12.50
2019-02-12T09:30:19.810Z,12.60
2019-02-12T09:32:57.237Z,13.50
2019-02-12T09:35:53.154Z,13.80
2019-02-12T09:38:47.527Z,14.00
2019-02-12T09:41:21.830Z,13.50
2019-02-12T09:44:14.958Z,13.50
2019-02-12T09:47:04.678Z,13.60
2019-02-12T09:49:54.250Z,12.50
2019-02-12T09:52:42.371Z,11.40
2019-02-12T09:55:26.030Z,10.40
2019-02-12T09:57:57.670Z,9.50
2019-02-12T10:00:31.963Z,8.70
2019-02-12T10:03:20.006Z,8.50
2019-02-12T10:05:57.566Z,7.90
2019-02-12T10:08:37.975Z,7.80
2019-02-12T10:11:26.094Z,7.90
2019-02-12T10:13:57.747Z,7.80
2019-02-12T10:16:41.158Z,7.70
2019-02-12T10:19:12.802Z,7.70
2019-02-12T10:21:44.462Z,7.50
2019-02-12T10:24:31.182Z,7.80
2019-02-12T10:27:21.139Z,8.00
2019-02-12T10:30:16.866Z,8.10
2019-02-12T10:32:45.474Z,7.40
2019-02-12T10:35:14.279Z,7.40
2019-02-12T10:37:42.846Z,7.30
2019-02-12T10:40:11.494Z,7.10
2019-02-12T10:42:40.058Z,6.70
2019-02-12T10:45:09.270Z,7.00
2019-02-12T10:47:37.882Z,6.80
2019-02-12T10:50:08.403Z,7.00
2019-02-12T10:52:36.962Z,7.00
2019-02-12T10:55:06.478Z,7.10
2019-02-12T10:57:35.042Z,7.20
2019-02-12T11:00:05.739Z,7.00
2019-02-12T11:02:34.314Z,6.60
2019-02-12T11:05:02.953Z,6.70
2019-02-12T11:07:31.591Z,6.80
2019-02-12T11:10:00.256Z,6.90
2019-02-12T11:12:29.011Z,7.10
2019-02-12T11:14:57.586Z,7.00
2019-02-12T11:17:26.230Z,7.10
2019-02-12T11:19:54.868Z,7.00
2019-02-12T11:22:23.614Z,7.30
2019-02-12T11:24:52.182Z,7.40
2019-02-12T11:27:20.766Z,7.20
2019-02-12T11:29:49.337Z,7.10
2019-02-12T11:32:17.914Z,7.40
2019-02-12T11:34:46.624Z,7.40
2019-02-12T11:37:15.186Z,7.30
2019-02-12T11:39:43.764Z,7.20
2019-02-12T11:42:12.354Z,7.30
2019-02-12T11:44:40.930Z,7.20
2019-02-12T11:47:09.502Z,7.00
2019-02-12T11:49:38.090Z,7.10
2019-02-12T11:52:06.805Z,7.30
2019-02-12T11:54:35.370Z,7.50
2019-02-12T11:57:03.950Z,7.40
2019-02-12T11:59:32.787Z,7.50
2019-02-12T12:02:01.437Z,7.60
2019-02-12T12:04:30.063Z,7.30
2019-02-12T12:06:58.637Z,7.50
2019-02-12T12:09:27.202Z,7.50
2019-02-12T12:11:55.807Z,7.30
2019-02-12T12:14:24.370Z,7.30
2019-02-12T12:16:52.937Z,7.60
2019-02-12T12:19:21.515Z,7.90
2019-02-12T12:21:50.150Z,8.00
2019-02-12T12:24:18.731Z,8.00
2019-02-12T12:26:47.297Z,8.00
2019-02-12T12:29:15.866Z,8.10
2019-02-12T12:31:44.442Z,8.00
2019-02-12T12:34:32.358Z,8.30
2019-02-12T12:37:01.054Z,8.50
2019-02-12T12:39:29.658Z,8.80
2019-02-12T12:41:58.218Z,8.10
2019-02-12T12:44:26.792Z,6.80
2019-02-12T12:46:55.362Z,6.10
2019-02-12T12:49:23.927Z,5.60
2019-02-12T12:51:52.505Z,5.40
2019-02-12T12:54:21.071Z,5.10
2019-02-12T12:56:49.651Z,5.00
2019-02-12T12:59:18.218Z,4.90
2019-02-12T13:01:46.782Z,4.80
2019-02-12T13:04:15.361Z,4.70
2019-02-12T13:06:43.926Z,4.80
2019-02-12T13:09:12.502Z,4.60
2019-02-12T13:11:41.066Z,4.60
2019-02-12T13:14:09.658Z,4.40
2019-02-12T13:16:38.222Z,4.50
2019-02-12T13:19:08.394Z,4.50
2019-02-12T13:21:37.082Z,4.50
2019-02-12T13:24:05.739Z,4.40
2019-02-12T13:26:34.314Z,4.40
2019-02-12T13:29:02.955Z,4.40
2019-02-12T13:31:31.526Z,4.50
2019-02-12T13:34:00.158Z,4.40
2019-02-12T13:36:28.802Z,4.40
2019-02-12T13:38:57.375Z,4.50
2019-02-12T13:41:25.946Z,4.50
2019-02-12T13:43:54.519Z,4.50
2019-02-12T13:46:23.106Z,4.50
2019-02-12T13:48:51.684Z,4.40
2019-02-12T13:51:20.317Z,4.00
2019-02-12T13:53:49.074Z,3.70
2019-02-12T13:56:17.707Z,3.50
2019-02-12T13:58:46.296Z,3.40
2019-02-12T14:01:14.854Z,3.20
2019-02-12T14:03:43.450Z,3.20
2019-02-12T14:06:12.115Z,3.10
2019-02-12T14:08:40.709Z,3.10
2019-02-12T14:11:09.282Z,3.00
2019-02-12T14:13:37.850Z,2.90
2019-02-12T14:16:06.499Z,2.80
2019-02-12T14:18:35.062Z,2.80
2019-02-12T14:21:03.638Z,2.80
2019-02-12T14:23:32.214Z,2.70
2019-02-12T14:26:00.862Z,2.70
2019-02-12T14:28:29.426Z,2.60
2019-02-12T14:30:58.082Z,2.60
2019-02-12T14:33:26.663Z,2.40
2019-02-12T14:35:55.226Z,2.30
2019-02-12T14:38:23.802Z,2.20
2019-02-12T14:40:52.371Z,2.10
2019-02-12T14:43:20.947Z,2.10
2019-02-12T14:45:49.509Z,2.20
2019-02-12T14:48:18.090Z,2.30
2019-02-12T14:50:46.651Z,2.30
2019-02-12T14:53:15.239Z,2.20
2019-02-12T14:55:43.896Z,2.20
2019-02-12T14:58:12.458Z,2.20
2019-02-12T15:00:41.310Z,2.10
2019-02-12T15:03:09.871Z,2.10
2019-02-12T15:05:38.550Z,2.00
2019-02-12T15:08:07.115Z,1.90
2019-02-12T15:10:35.713Z,1.80
2019-02-12T15:13:04.270Z,1.70
2019-02-12T15:15:32.914Z,1.70
2019-02-12T15:18:01.588Z,1.60
2019-02-12T15:20:30.197Z,1.50
2019-02-12T15:22:58.892Z,1.50
2019-02-12T15:25:27.523Z,1.40
2019-02-12T15:27:56.098Z,1.40
2019-02-12T15:30:24.664Z,1.20
2019-02-12T15:32:53.306Z,1.10
2019-02-12T15:35:21.890Z,1.10
2019-02-12T15:37:50.474Z,1.10
2019-02-12T15:40:20.377Z,1.10
2019-02-12T15:42:50.906Z,1.00
2019-02-12T15:45:21.774Z,1.00
2019-02-12T15:47:50.439Z,0.90
2019-02-12T15:50:19.139Z,0.90
2019-02-12T15:52:47.646Z,0.80
2019-02-12T15:55:16.292Z,0.80
2019-02-12T15:57:45.902Z,0.70
2019-02-12T16:00:20.586Z,0.60
2019-02-12T16:02:49.482Z,0.70
2019-02-12T16:05:18.618Z,0.70
2019-02-12T16:07:47.710Z,0.70
2019-02-12T16:10:21.113Z,0.70
2019-02-12T16:12:51.493Z,0.70
2019-02-12T16:15:22.433Z,0.70
2019-02-12T16:17:50.862Z,0.60
2019-02-12T16:20:19.582Z,0.50
2019-02-12T16:22:48.162Z,0.40
2019-02-12T16:25:16.726Z,0.30
2019-02-12T16:27:45.308Z,0.20
2019-02-12T16:30:21.616Z,0.30
2019-02-12T16:32:50.198Z,0.20
2019-02-12T16:35:19.157Z,0.20
2019-02-12T16:37:47.919Z,0.30
2019-02-12T16:40:17.622Z,0.30
2019-02-12T16:42:46.275Z,0.30
2019-02-12T16:45:23.821Z,0.40
2019-02-12T16:47:52.388Z,0.20
2019-02-12T16:50:21.022Z,0.30
2019-02-12T16:52:49.586Z,0.30
2019-02-12T16:55:18.242Z,0.30
2019-02-12T16:57:46.858Z,0.30
2019-02-12T17:00:19.584Z,0.30
2019-02-12T17:02:49.174Z,0.30
2019-02-12T17:05:18.415Z,0.30
2019-02-12T17:07:47.126Z,0.30
2019-02-12T17:10:15.932Z,0.40
2019-02-12T17:12:44.634Z,0.40
2019-02-12T17:15:13.939Z,0.40
2019-02-12T17:17:42.666Z,0.50
2019-02-12T17:20:19.042Z,0.50
2019-02-12T17:22:47.958Z,0.60
2019-02-12T17:25:16.623Z,0.70
2019-02-12T17:27:45.193Z,0.70
2019-02-12T17:30:16.185Z,0.80
2019-02-12T17:32:44.753Z,0.80
2019-02-12T17:35:13.330Z,0.90
2019-02-12T17:37:41.978Z,0.90
2019-02-12T17:40:12.796Z,0.90
2019-02-12T17:42:41.514Z,1.00
2019-02-12T17:45:14.841Z,1.00
2019-02-12T17:47:43.532Z,1.10
2019-02-12T17:50:15.607Z,1.10
2019-02-12T17:52:44.255Z,1.10
2019-02-12T17:55:13.054Z,1.00
2019-02-12T17:57:41.703Z,1.10
2019-02-12T18:00:17.123Z,1.10
2019-02-12T18:02:45.876Z,1.10
2019-02-12T18:05:14.702Z,1.10
2019-02-12T18:07:43.421Z,1.10
2019-02-12T18:10:12.631Z,1.20
2019-02-12T18:12:41.354Z,1.20
2019-02-12T18:15:11.869Z,1.30
2019-02-12T18:17:40.510Z,1.30
2019-02-12T18:20:13.800Z,1.30
2019-02-12T18:22:42.491Z,1.40
2019-02-12T18:25:11.504Z,1.50
2019-02-12T18:27:41.007Z,1.50
2019-02-12T18:30:17.214Z,1.60
2019-02-12T18:32:45.938Z,1.60
2019-02-12T18:35:14.764Z,1.60
2019-02-12T18:37:43.410Z,1.60
2019-02-12T18:40:17.022Z,1.60
2019-02-12T18:42:45.727Z,1.60
2019-02-12T18:45:25.515Z,1.70
2019-02-12T18:47:54.207Z,1.70
2019-02-12T18:50:22.837Z,1.70
2019-02-12T18:52:51.410Z,1.70
2019-02-12T18:55:19.974Z,1.70
2019-02-12T18:57:48.622Z,1.70
2019-02-12T19:00:21.142Z,1.70
2019-02-12T19:02:49.872Z,1.80
2019-02-12T19:05:18.438Z,1.90
2019-02-12T19:07:47.144Z,1.90
2019-02-12T19:10:17.163Z,2.00
2019-02-12T19:12:45.798Z,2.00
2019-02-12T19:15:19.829Z,2.00
2019-02-12T19:17:51.810Z,2.00
2019-02-12T19:20:20.458Z,2.00
2019-02-12T19:22:49.094Z,1.90
2019-02-12T19:25:17.673Z,1.90
2019-02-12T19:27:46.235Z,1.90
2019-02-12T19:30:16.426Z,1.80
2019-02-12T19:32:45.080Z,1.70
2019-02-12T19:35:13.717Z,1.70
2019-02-12T19:37:42.424Z,1.60
2019-02-12T19:40:12.132Z,1.60
2019-02-12T19:42:40.776Z,1.60
2019-02-12T19:45:14.842Z,1.60
2019-02-12T19:47:43.562Z,1.60
2019-02-12T19:50:12.667Z,1.60
2019-02-12T19:52:41.254Z,1.50
2019-02-12T19:55:10.658Z,1.60
2019-02-12T19:57:39.257Z,1.60
2019-02-12T20:00:27.218Z,1.50
2019-02-12T20:02:55.854Z,1.50
2019-02-12T20:05:24.430Z,1.40
2019-02-12T20:07:52.999Z,1.40
2019-02-12T20:10:21.574Z,1.40
2019-02-12T20:12:50.154Z,1.30
2019-02-12T20:15:20.935Z,1.30
2019-02-12T20:17:49.570Z,1.30
2019-02-12T20:20:18.614Z,1.20
2019-02-12T20:22:47.183Z,1.30
2019-02-12T20:25:15.753Z,1.20
2019-02-12T20:27:44.329Z,1.20
2019-02-12T20:30:20.626Z,1.20
2019-02-12T20:32:49.212Z,1.20
2019-02-12T20:35:21.982Z,1.20
2019-02-12T20:37:50.830Z,1.30
2019-02-12T20:40:19.464Z,1.20
2019-02-12T20:42:48.134Z,1.20
2019-02-12T20:45:18.039Z,1.20
2019-02-12T20:47:46.672Z,1.20
2019-02-12T20:50:21.910Z,1.20
2019-02-12T20:52:50.566Z,1.20
2019-02-12T20:55:20.110Z,1.20
2019-02-12T20:57:48.746Z,1.20
2019-02-12T21:00:22.538Z,1.20
2019-02-12T21:02:51.103Z,1.20
2019-02-12T21:05:19.746Z,1.10
2019-02-12T21:07:48.382Z,1.10
2019-02-12T21:10:20.926Z,1.00
2019-02-12T21:12:49.570Z,1.00
2019-02-12T21:15:24.198Z,0.90
2019-02-12T21:17:52.774Z,0.90
2019-02-12T21:20:21.340Z,0.80
2019-02-12T21:22:49.914Z,0.80
2019-02-12T21:25:18.618Z,0.80
2019-02-12T21:27:47.226Z,0.80
2019-02-12T21:30:23.813Z,0.80
2019-02-12T21:32:52.390Z,0.80
2019-02-12T21:35:21.036Z,0.80
2019-02-12T21:37:49.671Z,0.70
2019-02-12T21:40:25.854Z,0.80
2019-02-12T21:42:54.497Z,0.80
2019-02-12T21:45:23.138Z,0.80
2019-02-12T21:47:51.711Z,0.80
2019-02-12T21:50:20.358Z,0.90
2019-02-12T21:52:49.057Z,1.00
2019-02-12T21:55:20.755Z,1.00
2019-02-12T21:57:49.514Z,1.00
2019-02-12T22:00:37.436Z,1.10
2019-02-12T22:03:06.014Z,1.10
2019-02-12T22:05:34.650Z,1.10
2019-02-12T22:08:03.238Z,1.10
2019-02-12T22:10:31.870Z,1.10
2019-02-12T22:13:00.446Z,1.10
2019-02-12T22:15:29.082Z,1.10
2019-02-12T22:17:57.667Z,1.10
2019-02-12T22:20:26.230Z,1.20
2019-02-12T22:22:54.802Z,1.20
2019-02-12T22:25:23.438Z,1.20
2019-02-12T22:27:52.003Z,1.30
2019-02-12T22:30:24.926Z,1.30
2019-02-12T22:32:53.557Z,1.30
2019-02-12T22:35:22.204Z,1.40
2019-02-12T22:37:50.906Z,1.40
2019-02-12T22:40:19.549Z,1.50
2019-02-12T22:42:48.121Z,1.50
2019-02-12T22:45:19.225Z,1.50
2019-02-12T22:47:47.887Z,1.50
2019-02-12T22:50:16.647Z,1.50
2019-02-12T22:52:45.209Z,1.60
2019-02-12T22:55:13.914Z,1.60
2019-02-12T22:57:48.922Z,1.60
2019-02-12T23:00:22.911Z,1.70
2019-02-12T23:02:51.634Z,1.70
2019-02-12T23:05:20.199Z,1.80
2019-02-12T23:07:48.843Z,1.80
2019-02-12T23:10:17.546Z,1.80
2019-02-12T23:12:46.122Z,1.90
2019-02-12T23:15:14.687Z,1.90
2019-02-12T23:17:43.321Z,2.00
2019-02-12T23:20:11.893Z,2.00
2019-02-12T23:22:40.454Z,2.10
2019-02-12T23:25:09.269Z,2.10
2019-02-12T23:27:37.902Z,2.20
2019-02-12T23:30:09.100Z,2.20
2019-02-12T23:32:37.734Z,2.20
2019-02-12T23:35:06.850Z,2.30
2019-02-12T23:37:35.415Z,2.30
2019-02-12T23:40:04.846Z,2.30
2019-02-12T23:42:33.429Z,2.30
2019-02-12T23:45:02.011Z,2.40
2019-02-12T23:47:30.589Z,2.40
2019-02-12T23:49:59.146Z,2.40
2019-02-12T23:52:27.719Z,2.50
2019-02-12T23:54:56.350Z,2.50
2019-02-12T23:57:24.925Z,2.50
2019-02-12T23:59:53.490Z,2.60
